Time;durP1;ratioP1;P1;durP2;ratioP2;P2;SDS_P1;SDS_P2;PMS_P1;PMS_P2;Temp;Humidity;BMP_temperature;BMP_pressure;BME280_temperature;BME280_humidity;BME280_pressure;Samples;Min_cycle;Max_cycle;Signal;HPM_P1;HPM_P2
2023/06/22 00:00:08;;;;;;;9.77;7.90;;;20.20;1.00;;;;;;5056368;28;20459;-69
2023/06/22 00:02:33;;;;;;;9.77;7.72;;;20.10;1.00;;;;;;5056040;28;20033;-69
2023/06/22 00:04:59;;;;;;;9.35;8.40;;;20.10;61.60;;;;;;5056128;28;20445;-68
2023/06/22 00:07:24;;;;;;;11.40;7.95;;;20.10;42.30;;;;;;5056237;28;20025;-69
2023/06/22 00:09:50;;;;;;;10.93;7.88;;;20.00;97.80;;;;;;5056108;28;20063;-69
2023/06/22 00:12:15;;;;;;;8.60;7.70;;;20.00;99.90;;;;;;5056071;28;20029;-69
2023/06/22 00:14:41;;;;;;;11.88;8.43;;;19.90;99.90;;;;;;5055832;28;20066;-69
2023/06/22 00:17:06;;;;;;;13.05;9.45;;;19.90;99.90;;;;;;5055664;28;20035;-68
2023/06/22 00:19:35;;;;;;;10.48;9.35;;;19.90;99.90;;;;;;5055846;28;20052;-69
2023/06/22 00:22:03;;;;;;;12.00;9.70;;;19.90;99.90;;;;;;5055731;28;20048;-69
2023/06/22 00:24:28;;;;;;;10.60;9.20;;;19.90;99.90;;;;;;5055786;28;20637;-69
2023/06/22 00:26:54;;;;;;;11.77;9.48;;;19.90;99.90;;;;;;5055982;28;20033;-69
2023/06/22 00:29:19;;;;;;;14.80;9.93;;;19.90;99.90;;;;;;5055731;28;20022;-69
2023/06/22 00:31:45;;;;;;;11.05;8.70;;;19.90;99.90;;;;;;5055761;28;20036;-69
2023/06/22 00:34:10;;;;;;;13.45;9.73;;;20.00;99.90;;;;;;5055602;28;20036;-69
2023/06/22 00:36:36;;;;;;;12.05;7.68;;;19.90;99.90;;;;;;5055692;28;20036;-69
2023/06/22 00:39:02;;;;;;;12.98;10.10;;;19.90;99.90;;;;;;5055408;28;20025;-69
2023/06/22 00:41:29;;;;;;;11.52;10.15;;;19.80;99.90;;;;;;5055089;28;20521;-69
2023/06/22 00:43:55;;;;;;;16.23;11.00;;;19.80;99.90;;;;;;5055630;28;20020;-69
2023/06/22 00:46:22;;;;;;;13.00;11.32;;;19.80;99.90;;;;;;5055442;28;20040;-69
2023/06/22 00:48:48;;;;;;;12.75;8.63;;;19.70;99.90;;;;;;5055484;28;20101;-69
2023/06/22 00:51:14;;;;;;;11.43;9.50;;;19.70;99.90;;;;;;5054713;28;20402;-69
2023/06/22 00:53:40;;;;;;;10.20;8.60;;;19.60;99.90;;;;;;5055183;28;20055;-69
2023/06/22 00:56:08;;;;;;;11.02;8.88;;;19.60;99.90;;;;;;5055157;28;20070;-69
2023/06/22 00:58:35;;;;;;;12.52;9.65;;;19.50;99.90;;;;;;5055315;28;20036;-69
2023/06/22 01:01:02;;;;;;;14.25;9.85;;;19.50;1.00;;;;;;5055161;28;20542;-69
2023/06/22 01:03:27;;;;;;;12.05;8.95;;;19.40;1.00;;;;;;5055137;28;20108;-68
2023/06/22 01:06:02;;;;;;;11.80;8.75;;;19.40;1.00;;;;;;5055059;28;20063;-69
2023/06/22 01:08:51;;;;;;;9.70;8.27;;;19.30;1.00;;;;;;5054917;28;20024;-68
2023/06/22 01:11:25;;;;;;;11.70;10.48;;;19.30;1.00;;;;;;5054832;28;20105;-69
2023/06/22 01:14:13;;;;;;;17.17;11.60;;;19.20;1.00;;;;;;5055021;28;20116;-69
2023/06/22 01:16:43;;;;;;;13.20;10.77;;;19.30;1.00;;;;;;5054733;28;20078;-69
2023/06/22 01:19:41;;;;;;;13.40;10.18;;;19.30;1.00;;;;;;5054855;28;20032;-68
2023/06/22 01:22:12;;;;;;;11.07;8.80;;;19.30;1.00;;;;;;5054559;28;20025;-69
2023/06/22 01:24:51;;;;;;;9.82;8.73;;;19.30;1.00;;;;;;5054606;28;20047;-68
2023/06/22 01:27:45;;;;;;;10.98;9.20;;;19.20;1.00;;;;;;5054466;28;20025;-69
2023/06/22 01:30:13;;;;;;;13.55;10.13;;;19.20;1.00;;;;;;5054406;28;20395;-69
2023/06/22 01:32:40;;;;;;;10.93;9.50;;;19.10;1.00;;;;;;5054337;28;20052;-68
2023/06/22 01:35:08;;;;;;;9.90;8.90;;;19.10;1.00;;;;;;5054164;28;20163;-68
2023/06/22 01:37:35;;;;;;;15.00;13.07;;;19.00;1.00;;;;;;5054496;28;20502;-68
2023/06/22 01:40:04;;;;;;;17.40;13.40;;;18.90;1.00;;;;;;5054134;28;20045;-68
2023/06/22 01:42:30;;;;;;;17.67;13.95;;;19.00;1.00;;;;;;5054210;28;20036;-68
2023/06/22 01:44:56;;;;;;;15.75;13.82;;;19.00;1.00;;;;;;5054243;28;20033;-69
2023/06/22 01:47:22;;;;;;;19.00;14.15;;;19.00;1.00;;;;;;5054248;28;20017;-68
2023/06/22 01:49:49;;;;;;;14.00;12.40;;;19.10;1.00;;;;;;5054259;28;20025;-68
2023/06/22 01:52:15;;;;;;;13.90;11.20;;;19.10;1.00;;;;;;5053860;28;20565;-69
2023/06/22 01:54:41;;;;;;;14.50;11.65;;;19.10;1.00;;;;;;5053761;28;20455;-68
2023/06/22 01:57:09;;;;;;;17.27;13.45;;;19.10;1.00;;;;;;5054173;28;20017;-69
2023/06/22 01:59:45;;;;;;;14.15;12.63;;;19.10;1.00;;;;;;5053933;28;20028;-68
2023/06/22 02:02:14;;;;;;;12.32;10.20;;;19.00;1.00;;;;;;5053026;28;20028;-69
2023/06/22 02:05:02;;;;;;;13.52;11.95;;;19.00;1.00;;;;;;5053936;28;20029;-68
2023/06/22 02:07:33;;;;;;;16.20;12.20;;;19.00;1.00;;;;;;5053798;28;20028;-68
2023/06/22 02:10:01;;;;;;;15.00;12.50;;;19.00;1.00;;;;;;5053999;28;20111;-68
2023/06/22 02:12:29;;;;;;;13.07;11.52;;;18.90;1.00;;;;;;5053748;28;20033;-69
2023/06/22 02:14:55;;;;;;;12.25;10.95;;;18.90;1.00;;;;;;5053891;28;20500;-68
2023/06/22 02:17:21;;;;;;;15.07;11.60;;;19.00;1.00;;;;;;5053582;28;20021;-69
2023/06/22 02:19:46;;;;;;;14.57;11.73;;;18.90;1.00;;;;;;5053566;28;20118;-68
2023/06/22 02:22:13;;;;;;;17.33;12.55;;;18.90;1.00;;;;;;5053454;28;20033;-68
2023/06/22 02:24:39;;;;;;;15.45;12.43;;;18.80;1.00;;;;;;5053712;28;20029;-68
2023/06/22 02:27:06;;;;;;;14.45;12.75;;;18.70;1.00;;;;;;5053426;28;20095;-69
2023/06/22 02:29:32;;;;;;;18.88;13.15;;;18.70;1.00;;;;;;5053466;28;20025;-69
2023/06/22 02:31:58;;;;;;;17.58;14.00;;;18.70;1.00;;;;;;5052281;28;20039;-68
2023/06/22 02:34:24;;;;;;;14.52;12.48;;;18.70;1.00;;;;;;5053441;28;20048;-69
2023/06/22 02:36:51;;;;;;;15.77;14.07;;;18.70;1.00;;;;;;5053474;28;20104;-68
2023/06/22 02:39:20;;;;;;;19.75;14.65;;;18.70;1.00;;;;;;5053268;28;20532;-68
2023/06/22 02:41:46;;;;;;;14.75;13.13;;;18.70;1.00;;;;;;5053284;28;20036;-69
2023/06/22 02:44:11;;;;;;;17.17;13.20;;;18.70;1.00;;;;;;5053226;28;20029;-68
2023/06/22 02:46:37;;;;;;;14.52;12.95;;;18.70;1.00;;;;;;5053212;28;20021;-69
2023/06/22 02:49:03;;;;;;;18.17;15.15;;;18.70;1.00;;;;;;5053419;28;20029;-68
2023/06/22 02:51:31;;;;;;;18.83;15.25;;;18.70;1.00;;;;;;5053171;28;20047;-68
2023/06/22 02:53:57;;;;;;;21.50;16.35;;;18.70;1.00;;;;;;5053374;28;20029;-69
2023/06/22 02:56:25;;;;;;;20.00;17.10;;;18.70;1.00;;;;;;5053477;28;20040;-68
2023/06/22 02:58:51;;;;;;;21.52;17.52;;;18.80;1.00;;;;;;5052993;28;20394;-69
2023/06/22 03:01:16;;;;;;;18.80;16.83;;;18.70;1.00;;;;;;5052932;28;20033;-69
2023/06/22 03:03:42;;;;;;;19.02;17.10;;;18.80;1.00;;;;;;5053009;28;20532;-68
2023/06/22 03:06:07;;;;;;;20.25;16.55;;;18.80;1.00;;;;;;5053031;28;20063;-69
2023/06/22 03:08:33;;;;;;;20.90;17.10;;;18.80;1.00;;;;;;5053012;28;20455;-69
2023/06/22 03:10:59;;;;;;;19.05;16.15;;;18.80;1.00;;;;;;5053148;28;20475;-69
2023/06/22 03:13:25;;;;;;;21.23;17.08;;;18.80;1.00;;;;;;5053648;28;20036;-68
2023/06/22 03:15:51;;;;;;;20.13;18.02;;;18.80;1.00;;;;;;5057146;28;20021;-69
2023/06/22 03:18:16;;;;;;;21.50;17.85;;;18.80;1.00;;;;;;5057175;28;20499;-68
2023/06/22 03:20:42;;;;;;;21.20;16.88;;;18.70;1.00;;;;;;5056806;28;20032;-69
2023/06/22 03:23:07;;;;;;;21.83;16.88;;;18.70;1.00;;;;;;5056865;28;20395;-68
2023/06/22 03:25:33;;;;;;;22.35;17.95;;;18.70;1.00;;;;;;5057045;28;20432;-68
2023/06/22 03:28:00;;;;;;;20.55;17.42;;;18.70;1.00;;;;;;5056725;28;20021;-68
2023/06/22 03:30:26;;;;;;;21.48;18.15;;;18.70;1.00;;;;;;5056655;28;20021;-68
2023/06/22 03:32:51;;;;;;;21.48;17.88;;;18.70;1.00;;;;;;5056586;28;20033;-69
2023/06/22 03:35:17;;;;;;;22.27;18.48;;;18.70;1.00;;;;;;5056523;28;20033;-68
2023/06/22 03:37:42;;;;;;;21.45;17.23;;;18.70;1.00;;;;;;5056710;28;20060;-68
2023/06/22 03:40:08;;;;;;;21.50;18.42;;;18.70;1.00;;;;;;5056479;28;20061;-68
2023/06/22 03:42:36;;;;;;;21.02;17.45;;;18.70;1.00;;;;;;5056395;28;20044;-68
2023/06/22 03:45:03;;;;;;;20.75;18.40;;;18.80;1.00;;;;;;5056639;28;20029;-68
2023/06/22 03:47:29;;;;;;;24.08;18.38;;;18.80;1.00;;;;;;5056606;28;20063;-68
2023/06/22 03:49:55;;;;;;;22.90;19.25;;;18.80;1.00;;;;;;5056514;28;20029;-69
2023/06/22 03:52:22;;;;;;;25.95;18.38;;;18.80;1.00;;;;;;5056223;28;20033;-68
2023/06/22 03:54:48;;;;;;;23.38;18.85;;;18.80;1.00;;;;;;5056125;28;20104;-68
2023/06/22 03:57:13;;;;;;;26.10;18.77;;;18.90;1.00;;;;;;5056207;28;20064;-69
2023/06/22 03:59:39;;;;;;;22.35;17.92;;;18.90;1.00;;;;;;5056136;28;20035;-69
2023/06/22 04:02:04;;;;;;;22.25;17.60;;;19.00;1.00;;;;;;5056008;28;20043;-69
2023/06/22 04:04:30;;;;;;;21.10;18.48;;;19.00;1.00;;;;;;5056274;28;20387;-68
2023/06/22 04:06:55;;;;;;;25.20;18.67;;;19.10;1.00;;;;;;5056332;28;20056;-68
2023/06/22 04:09:21;;;;;;;22.38;18.73;;;19.10;1.00;;;;;;5055985;28;20021;-68
2023/06/22 04:11:47;;;;;;;20.80;18.42;;;19.20;1.00;;;;;;5056070;28;20029;-68
2023/06/22 04:14:13;;;;;;;21.75;18.25;;;19.20;1.00;;;;;;5055927;28;20107;-68
2023/06/22 04:16:38;;;;;;;21.23;18.20;;;19.30;1.00;;;;;;5055943;28;20036;-68
2023/06/22 04:19:04;;;;;;;21.40;18.33;;;19.40;1.00;;;;;;5055815;28;20037;-69
2023/06/22 04:21:29;;;;;;;21.33;18.25;;;19.40;1.00;;;;;;5055541;28;20029;-68
2023/06/22 04:23:55;;;;;;;21.63;18.27;;;19.50;1.00;;;;;;5055676;28;20049;-68
2023/06/22 04:26:21;;;;;;;19.80;17.33;;;19.50;1.00;;;;;;5054798;28;20475;-69
2023/06/22 04:28:51;;;;;;;21.10;17.52;;;19.50;1.00;;;;;;5055693;28;20473;-68
2023/06/22 04:31:18;;;;;;;21.70;18.45;;;19.60;1.00;;;;;;5055790;28;20037;-68
2023/06/22 04:33:44;;;;;;;21.48;18.55;;;19.60;1.00;;;;;;5055791;28;20029;-68
2023/06/22 04:36:13;;;;;;;22.02;17.98;;;19.70;1.00;;;;;;5055527;28;20390;-69
2023/06/22 04:38:39;;;;;;;24.35;18.85;;;19.80;1.00;;;;;;5055309;28;20044;-69
2023/06/22 04:41:05;;;;;;;23.40;18.55;;;19.80;1.00;;;;;;5055092;28;20052;-69
2023/06/22 04:43:30;;;;;;;21.05;18.00;;;19.90;1.00;;;;;;5055457;28;20029;-68
2023/06/22 04:46:03;;;;;;;22.40;18.48;;;20.00;1.00;;;;;;5055409;28;20471;-68
2023/06/22 04:48:32;;;;;;;21.33;18.03;;;20.00;1.00;;;;;;5055345;28;20479;-69
2023/06/22 04:51:03;;;;;;;21.80;19.45;;;20.10;1.00;;;;;;5055453;28;20266;-69
2023/06/22 04:53:29;;;;;;;21.35;17.83;;;20.20;1.00;;;;;;5055401;28;20449;-68
2023/06/22 04:55:55;;;;;;;22.27;19.13;;;20.30;1.00;;;;;;5055027;28;20024;-69
2023/06/22 04:58:21;;;;;;;21.67;18.75;;;20.40;1.00;;;;;;5055077;28;20074;-69
2023/06/22 05:00:47;;;;;;;20.33;18.23;;;20.50;1.00;;;;;;5054965;28;20029;-69
2023/06/22 05:03:13;;;;;;;20.33;17.65;;;20.70;1.00;;;;;;5055185;28;20024;-69
2023/06/22 05:05:39;;;;;;;20.70;18.52;;;21.00;99.90;;;;;;5054972;28;20469;-69
2023/06/22 05:08:06;;;;;;;20.15;17.70;;;21.20;99.90;;;;;;5055168;28;20068;-69
2023/06/22 05:10:32;;;;;;;21.90;18.98;;;21.40;99.90;;;;;;5054734;28;20428;-69
2023/06/22 05:12:58;;;;;;;24.17;19.63;;;21.30;99.90;;;;;;5054846;28;20112;-69
2023/06/22 05:15:27;;;;;;;19.50;17.40;;;21.20;99.90;;;;;;5054936;28;20120;-69
2023/06/22 05:17:53;;;;;;;21.45;18.90;;;21.40;99.90;;;;;;5054829;28;20033;-69
2023/06/22 05:20:19;;;;;;;20.58;18.35;;;21.50;99.90;;;;;;5054782;28;20251;-69
2023/06/22 05:22:44;;;;;;;19.48;17.50;;;21.80;99.90;;;;;;5054568;28;20044;-69
2023/06/22 05:25:11;;;;;;;20.73;16.70;;;22.10;11.80;;;;;;5054681;28;20028;-69
2023/06/22 05:27:39;;;;;;;22.13;18.98;;;22.30;1.00;;;;;;5054645;28;20025;-69
2023/06/22 05:30:07;;;;;;;20.58;18.42;;;22.50;99.90;;;;;;5053540;28;20513;-69
2023/06/22 05:32:33;;;;;;;20.95;18.45;;;22.70;1.00;;;;;;5053368;28;20372;-69
2023/06/22 05:34:59;;;;;;;23.27;18.90;;;22.60;1.00;;;;;;5054634;28;20033;-69
2023/06/22 05:37:24;;;;;;;21.55;19.17;;;22.30;99.90;;;;;;5054659;28;20568;-69
2023/06/22 05:39:50;;;;;;;22.67;20.08;;;22.10;1.00;;;;;;5054074;28;20041;-69
2023/06/22 05:42:16;;;;;;;25.02;20.48;;;21.90;1.00;;;;;;5054162;28;20053;-69
2023/06/22 05:44:41;;;;;;;24.90;20.33;;;21.70;99.90;;;;;;5054093;28;20025;-69
2023/06/22 05:47:07;;;;;;;22.60;20.20;;;21.70;99.90;;;;;;5054155;28;20025;-69
2023/06/22 05:49:33;;;;;;;26.33;20.50;;;21.50;99.90;;;;;;5053979;28;20025;-68
2023/06/22 05:51:59;;;;;;;23.27;20.20;;;21.30;99.90;;;;;;5054024;28;20289;-69
2023/06/22 05:54:27;;;;;;;22.90;20.00;;;21.30;99.90;;;;;;5054014;28;20108;-69
2023/06/22 05:56:52;;;;;;;24.48;21.85;;;21.20;99.90;;;;;;5053909;28;20474;-69
2023/06/22 05:59:18;;;;;;;23.92;20.98;;;21.00;99.90;;;;;;5053917;28;20032;-69
2023/06/22 06:01:44;;;;;;;25.83;20.60;;;20.90;99.90;;;;;;5053877;28;20025;-69
2023/06/22 06:04:09;;;;;;;22.80;20.15;;;20.90;1.00;;;;;;5053842;28;20036;-68
2023/06/22 06:06:36;;;;;;;23.42;20.60;;;20.90;1.00;;;;;;5063435;28;20020;-69
2023/06/22 06:09:04;;;;;;;23.45;19.20;;;21.00;1.00;;;;;;5073519;28;20432;-69
2023/06/22 06:11:29;;;;;;;23.15;19.75;;;21.00;1.00;;;;;;5073071;28;20102;-69
2023/06/22 06:13:55;;;;;;;24.25;19.98;;;20.90;99.90;;;;;;5073552;28;20432;-69
2023/06/22 06:16:21;;;;;;;23.48;19.33;;;20.90;99.90;;;;;;5073298;28;20025;-68
2023/06/22 06:18:48;;;;;;;19.98;17.92;;;21.00;99.90;;;;;;5073152;28;20054;-68
2023/06/22 06:21:14;;;;;;;23.05;18.17;;;21.00;99.90;;;;;;5072809;28;20028;-69
2023/06/22 06:23:39;;;;;;;25.50;18.05;;;21.10;99.90;;;;;;5072569;28;20038;-68
2023/06/22 06:26:06;;;;;;;21.30;18.80;;;21.10;99.90;;;;;;5072730;28;20501;-68
2023/06/22 06:28:33;;;;;;;22.80;18.33;;;21.10;99.90;;;;;;5073336;28;20029;-69
2023/06/22 06:30:58;;;;;;;19.08;16.77;;;21.20;99.90;;;;;;5073059;28;20031;-69
2023/06/22 06:33:24;;;;;;;23.67;17.95;;;21.20;99.90;;;;;;5073014;28;20450;-69
2023/06/22 06:35:50;;;;;;;20.58;17.83;;;21.20;99.90;;;;;;5073061;28;20513;-69
2023/06/22 06:38:15;;;;;;;21.80;18.85;;;21.10;99.90;;;;;;5072882;28;20025;-69
2023/06/22 06:40:41;;;;;;;25.75;20.27;;;21.00;99.90;;;;;;5072478;28;20064;-69
2023/06/22 06:43:07;;;;;;;25.50;21.48;;;20.90;1.00;;;;;;5073249;28;20040;-69
2023/06/22 06:45:34;;;;;;;26.52;21.88;;;20.90;1.00;;;;;;5073333;28;20497;-69
2023/06/22 06:48:00;;;;;;;23.98;21.00;;;20.80;1.00;;;;;;5072906;28;20501;-69
2023/06/22 06:50:25;;;;;;;24.65;22.08;;;20.90;1.00;;;;;;5072504;28;20024;-69
2023/06/22 06:52:51;;;;;;;25.58;20.88;;;20.90;1.00;;;;;;5073043;28;20393;-69
2023/06/22 06:55:18;;;;;;;31.35;23.33;;;21.00;1.00;;;;;;5072726;28;20029;-69
2023/06/22 06:57:48;;;;;;;27.23;22.77;;;21.10;1.00;;;;;;5073103;28;20031;-69
2023/06/22 07:00:15;;;;;;;28.92;22.52;;;21.10;1.00;;;;;;5072929;28;20029;-69
2023/06/22 07:02:41;;;;;;;25.70;23.00;;;21.20;1.00;;;;;;5073228;28;20490;-69
2023/06/22 07:05:08;;;;;;;28.73;23.67;;;21.40;1.00;;;;;;5071639;28;20063;-69
2023/06/22 07:07:34;;;;;;;27.10;23.90;;;21.40;1.00;;;;;;5072378;28;20075;-68
2023/06/22 07:10:00;;;;;;;28.42;23.98;;;21.40;1.00;;;;;;5072656;28;20055;-69
2023/06/22 07:12:26;;;;;;;28.83;23.83;;;21.50;1.00;;;;;;5070577;28;20480;-68
2023/06/22 07:14:53;;;;;;;29.08;25.13;;;21.50;1.00;;;;;;5068303;28;20108;-72
2023/06/22 07:17:18;;;;;;;32.00;24.67;;;21.50;1.00;;;;;;5067779;28;20115;-69
2023/06/22 07:19:45;;;;;;;27.08;23.17;;;21.60;1.00;;;;;;5071204;28;20111;-69
2023/06/22 07:22:11;;;;;;;29.17;23.48;;;21.60;1.00;;;;;;5071357;28;20467;-69
2023/06/22 07:24:37;;;;;;;25.77;22.75;;;21.50;1.00;;;;;;5060935;28;20035;-68
2023/06/22 07:27:03;;;;;;;28.25;21.95;;;21.70;1.00;;;;;;5066992;28;20162;-68
2023/06/22 07:29:29;;;;;;;25.92;23.15;;;21.90;1.00;;;;;;5072756;28;20025;-69
2023/06/22 07:31:56;;;;;;;29.80;23.60;;;22.20;1.00;;;;;;5071640;28;20048;-69
2023/06/22 07:34:21;;;;;;;30.95;23.80;;;22.40;1.00;;;;;;5072494;28;20384;-69
2023/06/22 07:36:47;;;;;;;30.33;22.83;;;22.40;1.00;;;;;;5072202;28;20039;-69
2023/06/22 07:39:13;;;;;;;30.65;24.05;;;22.50;1.00;;;;;;5063621;28;20037;-69
2023/06/22 07:41:40;;;;;;;25.90;22.98;;;22.60;99.90;;;;;;5072514;28;20498;-69
2023/06/22 07:44:06;;;;;;;29.92;25.13;;;22.60;99.90;;;;;;5072537;28;20024;-69
2023/06/22 07:46:32;;;;;;;31.90;26.75;;;22.70;99.90;;;;;;5072362;28;20039;-69
2023/06/22 07:48:58;;;;;;;29.40;26.10;;;22.70;99.90;;;;;;5072618;28;20029;-69
2023/06/22 07:51:24;;;;;;;30.08;25.70;;;22.70;1.00;;;;;;5072655;28;20410;-69
2023/06/22 07:53:49;;;;;;;32.65;26.30;;;22.70;99.90;;;;;;5071880;28;20036;-69
2023/06/22 07:56:18;;;;;;;28.70;23.83;;;22.70;1.00;;;;;;5072467;28;20036;-69
2023/06/22 07:58:45;;;;;;;28.95;25.85;;;22.60;1.00;;;;;;5072442;28;20024;-69
2023/06/22 08:01:11;;;;;;;31.88;26.35;;;22.50;1.00;;;;;;5074099;28;20032;-69
2023/06/22 08:03:37;;;;;;;32.42;25.38;;;22.50;1.00;;;;;;5075681;28;20497;-68
2023/06/22 08:06:03;;;;;;;29.17;24.48;;;22.70;1.00;;;;;;5075341;28;20035;-69
2023/06/22 08:08:28;;;;;;;29.38;23.98;;;22.70;1.00;;;;;;5075468;28;20465;-69
2023/06/22 08:10:54;;;;;;;25.70;22.88;;;22.60;1.00;;;;;;5067949;28;20025;-69
2023/06/22 08:13:20;;;;;;;26.08;22.60;;;22.80;1.00;;;;;;5071483;28;20474;-69
2023/06/22 08:15:45;;;;;;;28.70;24.20;;;23.10;99.90;;;;;;5074567;28;20083;-69
2023/06/22 08:18:11;;;;;;;23.92;21.40;;;23.30;99.90;;;;;;5075203;28;20035;-69
2023/06/22 08:20:36;;;;;;;28.48;21.98;;;23.50;99.90;;;;;;5075079;28;20363;-69
2023/06/22 08:23:06;;;;;;;24.83;21.35;;;23.80;99.90;;;;;;5074280;28;20466;-69
2023/06/22 08:25:32;;;;;;;21.55;18.85;;;23.90;99.90;;;;;;5073254;28;20154;-69
2023/06/22 08:27:58;;;;;;;22.80;20.33;;;24.10;99.90;;;;;;5072972;28;20107;-69
2023/06/22 08:30:23;;;;;;;23.77;20.10;;;24.10;1.00;;;;;;5075501;28;20498;-70
2023/06/22 08:32:49;;;;;;;21.85;19.63;;;24.20;1.00;;;;;;5075192;28;20071;-69
2023/06/22 08:35:15;;;;;;;22.25;18.90;;;24.20;1.00;;;;;;5074619;28;20383;-69
2023/06/22 08:37:40;;;;;;;24.02;21.20;;;24.40;99.90;;;;;;5069864;28;20028;-69
2023/06/22 08:40:09;;;;;;;25.67;20.67;;;24.40;99.90;;;;;;5075132;28;20040;-69
2023/06/22 08:42:35;;;;;;;22.48;20.20;;;24.50;99.90;;;;;;5069093;28;20044;-69
2023/06/22 08:45:00;;;;;;;22.95;19.83;;;24.50;99.90;;;;;;5054733;28;20029;-69
2023/06/22 08:47:27;;;;;;;25.05;19.45;;;24.60;71.30;;;;;;5055360;28;20363;-69
2023/06/22 08:49:53;;;;;;;21.60;19.08;;;24.70;99.90;;;;;;5055168;28;20542;-70
2023/06/22 08:52:19;;;;;;;23.40;20.92;;;25.30;1.00;;;;;;5055154;28;20056;-69
2023/06/22 08:54:45;;;;;;;25.17;20.08;;;25.50;1.00;;;;;;5055154;28;20513;-70
2023/06/22 08:57:11;;;;;;;26.25;20.15;;;26.30;1.00;;;;;;5055320;28;20029;-70
2023/06/22 08:59:36;;;;;;;22.00;18.83;;;27.20;99.90;;;;;;5055181;28;20060;-70
2023/06/22 09:02:02;;;;;;;19.45;17.05;;;27.60;99.90;;;;;;5067797;28;20085;-70
2023/06/22 09:04:28;;;;;;;17.40;15.70;;;27.90;99.90;;;;;;5075030;28;20024;-70
2023/06/22 09:06:53;;;;;;;14.77;13.25;;;28.20;1.00;;;;;;5074849;28;20023;-70
2023/06/22 09:09:20;;;;;;;16.52;14.85;;;30.30;99.90;;;;;;5071653;28;20037;-70
2023/06/22 09:11:46;;;;;;;14.38;12.98;;;31.40;1.00;;;;;;5057766;28;20111;-71
2023/06/22 09:14:12;;;;;;;14.55;12.75;;;31.70;1.00;;;;;;5073782;28;20063;-70
2023/06/22 09:16:38;;;;;;;14.05;12.80;;;31.70;99.90;;;;;;5068430;28;20098;-71
2023/06/22 09:19:04;;;;;;;13.80;12.45;;;31.80;99.90;;;;;;5074025;28;20386;-70
2023/06/22 09:21:29;;;;;;;14.77;11.98;;;31.80;99.90;;;;;;5073927;28;20037;-70
2023/06/22 09:23:55;;;;;;;12.02;10.98;;;32.10;99.90;;;;;;5074047;28;20074;-71
2023/06/22 09:26:22;;;;;;;14.05;12.57;;;32.30;99.90;;;;;;5074067;28;20020;-71
2023/06/22 09:28:48;;;;;;;15.85;13.32;;;31.70;99.90;;;;;;5074686;28;20059;-71
2023/06/22 09:31:13;;;;;;;13.70;12.45;;;31.50;99.90;;;;;;5072285;28;20064;-70
2023/06/22 09:33:40;;;;;;;12.18;11.05;;;31.90;99.90;;;;;;5066995;28;20025;-71
2023/06/22 09:36:07;;;;;;;14.60;11.15;;;31.90;99.90;;;;;;5063924;28;20479;-70
2023/06/22 09:38:37;;;;;;;11.95;10.52;;;32.00;99.90;;;;;;5054159;28;20067;-71
2023/06/22 09:41:03;;;;;;;11.07;9.98;;;31.80;99.90;;;;;;5052980;28;20044;-71
2023/06/22 09:43:29;;;;;;;11.45;10.20;;;32.00;99.90;;;;;;5054332;28;20437;-72
2023/06/22 09:45:55;;;;;;;12.88;10.88;;;32.70;99.90;;;;;;5057084;28;20119;-69
2023/06/22 09:48:20;;;;;;;11.75;9.55;;;33.00;99.90;;;;;;5071357;28;20067;-72
2023/06/22 09:50:46;;;;;;;10.50;9.52;;;32.00;99.90;;;;;;5073616;28;20150;-71
2023/06/22 09:53:12;;;;;;;12.23;11.02;;;31.70;99.90;;;;;;5073538;28;20078;-71
2023/06/22 09:55:37;;;;;;;12.00;10.40;;;32.20;99.90;;;;;;5073687;28;20032;-71
2023/06/22 09:58:03;;;;;;;15.15;12.65;;;31.60;99.90;;;;;;5073896;28;20040;-71
2023/06/22 10:00:28;;;;;;;13.32;11.98;;;30.10;99.90;;;;;;5073717;28;20075;-71
2023/06/22 10:02:55;;;;;;;14.32;12.98;;;30.00;99.90;;;;;;5072479;28;20028;-71
2023/06/22 10:05:21;;;;;;;13.27;12.07;;;30.60;99.90;;;;;;5073884;28;20567;-71
2023/06/22 10:07:47;;;;;;;14.68;13.35;;;31.70;99.90;;;;;;5073500;28;20047;-71
2023/06/22 10:10:13;;;;;;;14.80;13.30;;;31.70;99.90;;;;;;5072065;28;20016;-70
2023/06/22 10:12:43;;;;;;;12.07;10.98;;;32.10;99.90;;;;;;5071160;28;20036;-71
2023/06/22 10:15:09;;;;;;;11.10;9.95;;;32.00;99.90;;;;;;5072772;28;20540;-71
2023/06/22 10:17:34;;;;;;;13.10;11.93;;;31.80;99.90;;;;;;5072935;28;20029;-71
2023/06/22 10:20:01;;;;;;;11.98;10.82;;;30.80;99.90;;;;;;5073446;28;20039;-71
2023/06/22 10:22:26;;;;;;;11.70;10.60;;;30.60;99.90;;;;;;5072140;28;20120;-71
2023/06/22 10:24:52;;;;;;;11.88;10.68;;;30.40;99.90;;;;;;5072638;28;20104;-72
2023/06/22 10:27:17;;;;;;;10.50;9.50;;;30.80;99.90;;;;;;5073353;28;20103;-73
2023/06/22 10:29:44;;;;;;;9.70;8.63;;;31.50;99.90;;;;;;5073569;28;20025;-71
2023/06/22 10:32:09;;;;;;;8.00;7.25;;;31.20;99.90;;;;;;5071937;28;20064;-71
2023/06/22 10:34:35;;;;;;;8.75;7.72;;;30.40;99.90;;;;;;5057292;28;20079;-71
2023/06/22 10:37:00;;;;;;;9.30;8.50;;;30.30;99.90;;;;;;5056529;28;20028;-71
2023/06/22 10:39:26;;;;;;;9.77;8.88;;;30.00;99.90;;;;;;5072826;28;20454;-72
2023/06/22 10:41:52;;;;;;;10.52;8.95;;;30.00;99.90;;;;;;5071794;28;20036;-71
2023/06/22 10:44:18;;;;;;;9.57;8.57;;;29.70;99.90;;;;;;5073707;28;20410;-71
2023/06/22 10:46:44;;;;;;;8.90;7.97;;;29.70;99.90;;;;;;5066405;28;20025;-71
2023/06/22 10:49:09;;;;;;;9.55;8.05;;;29.70;99.90;;;;;;5053174;28;20025;-72
2023/06/22 10:51:35;;;;;;;9.63;7.63;;;29.50;99.90;;;;;;5053079;28;20033;-71
2023/06/22 10:54:00;;;;;;;8.73;7.93;;;29.60;99.90;;;;;;5071134;28;20115;-71
2023/06/22 10:56:26;;;;;;;8.90;8.00;;;29.60;99.90;;;;;;5073170;28;20025;-71
2023/06/22 10:58:52;;;;;;;8.65;7.75;;;29.10;99.90;;;;;;5072738;28;20116;-71
2023/06/22 11:01:17;;;;;;;8.30;7.45;;;29.00;99.90;;;;;;5072885;28;20029;-71
2023/06/22 11:03:43;;;;;;;8.65;7.85;;;29.10;99.90;;;;;;5073178;28;20036;-71
2023/06/22 11:06:08;;;;;;;12.93;8.63;;;29.30;99.90;;;;;;5072016;28;20024;-71
2023/06/22 11:08:34;;;;;;;10.65;7.53;;;28.90;99.90;;;;;;5073187;28;20031;-71
2023/06/22 11:10:59;;;;;;;12.55;8.27;;;29.30;99.90;;;;;;5073388;28;20123;-71
2023/06/22 11:13:25;;;;;;;8.43;7.50;;;29.30;99.90;;;;;;5071889;28;20055;-71
2023/06/22 11:15:50;;;;;;;8.98;7.47;;;29.40;99.90;;;;;;5073089;28;20107;-71
2023/06/22 11:18:16;;;;;;;10.63;8.75;;;29.30;99.90;;;;;;5071581;28;20032;-71
2023/06/22 11:20:42;;;;;;;8.88;7.97;;;29.10;99.90;;;;;;5073157;28;20031;-71
2023/06/22 11:23:08;;;;;;;9.18;8.30;;;29.40;99.90;;;;;;5072849;28;20064;-71
2023/06/22 11:25:35;;;;;;;9.07;8.18;;;29.50;99.90;;;;;;5072811;28;20067;-71
2023/06/22 11:28:04;;;;;;;8.75;7.90;;;29.60;99.90;;;;;;5071937;28;20028;-72
2023/06/22 11:30:30;;;;;;;9.93;8.85;;;29.30;99.90;;;;;;5072911;28;20440;-71
2023/06/22 11:32:58;;;;;;;11.18;8.95;;;29.10;99.90;;;;;;5063764;28;20025;-70
2023/06/22 11:35:24;;;;;;;11.32;9.07;;;28.70;1.00;;;;;;5074414;28;20041;-71
2023/06/22 11:37:49;;;;;;;9.93;8.93;;;28.30;1.00;;;;;;5076632;28;20051;-71
2023/06/22 11:40:17;;;;;;;12.35;9.65;;;28.00;1.00;;;;;;5076410;28;20098;-71
2023/06/22 11:42:43;;;;;;;11.40;9.70;;;27.70;1.00;;;;;;5075090;28;20032;-71
2023/06/22 11:45:08;;;;;;;10.45;9.45;;;27.40;52.40;;;;;;5076457;28;20029;-70
2023/06/22 11:47:34;;;;;;;12.55;10.80;;;27.10;99.90;;;;;;5076405;28;20021;-71
2023/06/22 11:50:00;;;;;;;12.35;10.98;;;26.80;99.90;;;;;;5076328;28;20025;-71
2023/06/22 11:52:27;;;;;;;13.05;11.07;;;26.60;99.90;;;;;;5076313;28;20025;-71
2023/06/22 11:54:52;;;;;;;16.20;11.95;;;26.50;99.90;;;;;;5074346;28;20031;-69
2023/06/22 11:57:18;;;;;;;18.20;12.50;;;26.20;1.00;;;;;;5065553;28;20100;-69
2023/06/22 11:59:43;;;;;;;11.98;10.77;;;25.70;99.90;;;;;;5056093;28;20032;-70
2023/06/22 12:02:09;;;;;;;18.42;13.55;;;25.40;47.00;;;;;;5056133;28;20021;-70
2023/06/22 12:04:35;;;;;;;15.85;13.00;;;25.20;1.00;;;;;;5056210;28;20025;-69
2023/06/22 12:07:00;;;;;;;14.23;12.73;;;24.70;1.00;;;;;;5056148;28;20025;-69
2023/06/22 12:09:26;;;;;;;17.20;15.10;;;24.50;1.00;;;;;;5056109;28;20091;-69
2023/06/22 12:11:52;;;;;;;17.88;14.85;;;24.40;17.70;;;;;;5055920;28;20086;-70
2023/06/22 12:14:17;;;;;;;17.00;15.02;;;24.10;3.70;;;;;;5073032;28;20030;-69
2023/06/22 12:16:43;;;;;;;20.13;16.42;;;24.00;15.90;;;;;;5074731;28;20032;-69
2023/06/22 12:19:09;;;;;;;20.05;16.58;;;23.90;88.40;;;;;;5075758;28;20535;-70
2023/06/22 12:21:36;;;;;;;17.90;15.85;;;23.90;96.60;;;;;;5076009;28;20020;-70
2023/06/22 12:24:02;;;;;;;19.75;16.85;;;23.70;92.70;;;;;;5075712;28;20032;-70
2023/06/22 12:26:27;;;;;;;19.08;17.00;;;23.70;99.90;;;;;;5075845;28;20033;-69
2023/06/22 12:28:53;;;;;;;22.40;18.92;;;23.60;99.90;;;;;;5074497;28;20035;-69
2023/06/22 12:31:19;;;;;;;26.17;19.52;;;23.50;99.90;;;;;;5075213;28;20066;-70